Time;durP1;ratioP1;P1;durP2;ratioP2;P2;SDS_P1;SDS_P2;PMS_P1;PMS_P2;Temp;Humidity;BMP_temperature;BMP_pressure;BME280_temperature;BME280_humidity;BME280_pressure;Samples;Min_cycle;Max_cycle;Signal;HPM_P1;HPM_P2
2023/01/28 05:43:43;;;;;;;11.45;6.82;;;21.50;71.00;;;;;;6182979;28;95849;-96
2023/01/28 05:50:02;;;;;;;10.63;6.78;;;21.40;71.00;;;;;;6187027;28;93707;-96
2023/01/28 06:07:18;;;;;;;8.65;6.95;;;21.40;71.50;;;;;;6185316;28;94989;-96
2023/01/28 06:13:40;;;;;;;9.32;6.43;;;21.40;71.30;;;;;;6168329;28;94484;-96
2023/01/28 06:30:53;;;;;;;9.05;6.82;;;21.30;71.10;;;;;;6194698;28;94566;-96
2023/01/28 06:58:29;;;;;;;9.75;7.63;;;21.30;72.20;;;;;;6183886;28;95353;-96
2023/01/28 07:01:31;;;;;;;9.30;7.55;;;21.30;72.70;;;;;;6180666;28;94508;-96
2023/01/28 07:22:10;;;;;;;8.00;7.20;;;21.60;72.80;;;;;;6172873;28;94414;-96
2023/01/28 07:35:03;;;;;;;8.13;7.32;;;21.80;72.50;;;;;;6169040;28;95815;-96
2023/01/28 07:49:46;;;;;;;8.45;6.93;;;21.90;72.30;;;;;;6174505;28;92379;-96
2023/01/28 07:52:49;;;;;;;9.75;7.10;;;22.00;72.40;;;;;;6175178;28;94499;-96
2023/01/28 08:05:43;;;;;;;9.77;6.82;;;22.10;71.40;;;;;;6186417;28;94624;-96
2023/01/28 08:12:05;;;;;;;7.07;6.38;;;22.10;71.30;;;;;;6185494;28;95651;-96
2023/01/28 08:37:22;;;;;;;7.85;6.78;;;22.20;71.90;;;;;;6188362;28;95650;-95
2023/01/28 08:55:29;;;;;;;7.70;6.75;;;22.20;72.20;;;;;;6160957;28;96708;-96
2023/01/28 09:08:23;;;;;;;7.88;6.60;;;22.30;72.20;;;;;;6168474;28;94440;-96
2023/01/28 09:15:13;;;;;;;7.07;6.38;;;22.30;72.20;;;;;;6170936;28;94586;-96
2023/01/28 09:21:31;;;;;;;10.00;7.18;;;22.40;71.80;;;;;;6188459;28;95574;-95
2023/01/28 09:31:08;;;;;;;12.23;10.93;;;22.30;65.40;;;;;;6181646;28;95628;-96
2023/01/28 10:08:51;;;;;;;11.50;8.80;;;22.20;64.70;;;;;;6189802;28;94475;-96
2023/01/28 10:12:36;;;;;;;9.90;8.45;;;22.30;65.10;;;;;;6176362;28;94972;-96
2023/01/28 10:42:26;;;;;;;8.50;7.60;;;22.40;66.70;;;;;;6173842;28;94095;-96
2023/01/28 11:06:26;;;;;;;10.10;7.72;;;22.40;67.40;;;;;;6184389;28;95704;-96
2023/01/28 11:19:36;;;;;;;8.25;7.20;;;22.50;71.60;;;;;;6180577;28;93519;-96
2023/01/28 11:30:23;;;;;;;8.68;7.32;;;22.60;70.90;;;;;;6177074;28;95330;-95
2023/01/28 11:55:09;;;;;;;8.15;7.00;;;22.70;70.80;;;;;;6183791;28;91311;-96
2023/01/28 11:58:27;;;;;;;13.82;7.07;;;22.70;70.90;;;;;;6180314;28;93007;-96
2023/01/28 12:05:08;;;;;;;7.85;6.93;;;22.80;72.50;;;;;;6232803;22;95995;-71
2023/01/28 12:08:18;;;;;;;8.95;7.00;;;22.80;71.50;;;;;;6216908;28;94332;-70
2023/01/28 12:15:14;;;;;;;7.88;6.45;;;22.80;70.50;;;;;;6212376;28;92786;-70
2023/01/28 12:18:41;;;;;;;8.52;6.53;;;22.80;70.10;;;;;;6221723;28;94172;-70
2023/01/28 12:22:04;;;;;;;6.90;6.15;;;22.80;70.00;;;;;;6204291;28;94148;-70
2023/01/28 12:25:24;;;;;;;6.93;6.18;;;22.80;69.90;;;;;;6216380;28;94065;-72
2023/01/28 12:28:37;;;;;;;10.25;6.78;;;22.80;69.80;;;;;;6223775;28;94905;-70
2023/01/28 12:31:56;;;;;;;8.43;6.30;;;22.80;69.70;;;;;;6217680;28;95361;-71
2023/01/28 12:35:31;;;;;;;6.80;6.10;;;22.80;69.60;;;;;;6210969;28;94183;-70
2023/01/28 12:38:44;;;;;;;6.88;6.13;;;22.80;69.40;;;;;;6215362;28;95319;-71
2023/01/28 12:41:51;;;;;;;7.85;6.13;;;22.80;69.40;;;;;;6225047;28;93532;-70
2023/01/28 12:45:00;;;;;;;7.53;6.53;;;22.80;69.40;;;;;;6231022;28;94501;-70
2023/01/28 12:48:11;;;;;;;8.00;6.35;;;22.80;69.40;;;;;;6218399;28;93804;-71
2023/01/28 12:51:17;;;;;;;6.68;5.60;;;22.80;69.40;;;;;;6218766;28;94209;-70
2023/01/28 12:54:24;;;;;;;6.55;5.93;;;22.80;69.30;;;;;;6216664;28;93016;-69
2023/01/28 12:57:28;;;;;;;6.85;5.93;;;22.80;69.30;;;;;;6213738;28;94232;-69
2023/01/28 13:00:34;;;;;;;7.13;5.85;;;22.80;69.40;;;;;;6227462;28;93457;-69
2023/01/28 13:03:43;;;;;;;6.63;5.95;;;22.80;69.40;;;;;;6221968;28;94126;-69
2023/01/28 13:06:50;;;;;;;6.72;5.63;;;22.80;69.30;;;;;;6206593;28;94393;-69
2023/01/28 13:09:58;;;;;;;6.55;5.78;;;22.80;69.30;;;;;;6215999;28;95350;-69
2023/01/28 13:13:01;;;;;;;6.55;5.85;;;22.80;69.40;;;;;;6221632;28;94344;-69
2023/01/28 13:16:04;;;;;;;6.40;5.43;;;22.80;69.20;;;;;;6225953;28;94093;-69
2023/01/28 13:19:21;;;;;;;6.47;5.47;;;22.80;69.20;;;;;;6224348;28;94133;-70
2023/01/28 13:22:29;;;;;;;6.65;5.63;;;22.80;69.20;;;;;;6218137;28;94103;-69
2023/01/28 13:25:34;;;;;;;6.40;5.30;;;22.80;69.20;;;;;;6224043;28;94159;-70
2023/01/28 13:28:36;;;;;;;6.00;5.40;;;22.80;69.10;;;;;;6215983;28;94177;-69
2023/01/28 13:31:40;;;;;;;7.32;5.60;;;22.90;69.20;;;;;;6214818;28;93583;-70
2023/01/28 13:34:44;;;;;;;6.35;5.50;;;22.90;69.20;;;;;;6206582;28;94231;-70
2023/01/28 13:37:47;;;;;;;6.13;5.53;;;22.90;69.20;;;;;;6207248;28;93278;-69
2023/01/28 13:40:55;;;;;;;5.88;5.28;;;22.90;69.20;;;;;;6217422;28;95200;-69
2023/01/28 13:43:58;;;;;;;6.28;5.38;;;22.90;69.10;;;;;;6227670;28;93895;-69
2023/01/28 13:47:20;;;;;;;5.75;5.15;;;22.90;69.10;;;;;;6224309;28;94566;-69
2023/01/28 13:50:30;;;;;;;5.80;5.20;;;22.80;69.00;;;;;;6216011;28;94072;-69
2023/01/28 13:53:41;;;;;;;6.63;5.60;;;22.90;69.10;;;;;;6220122;28;94110;-70
2023/01/28 13:57:09;;;;;;;5.95;5.35;;;22.90;70.00;;;;;;6207869;28;94431;-70
2023/01/28 14:00:20;;;;;;;6.10;5.20;;;22.90;69.10;;;;;;6221312;28;94426;-71
2023/01/28 14:03:59;;;;;;;5.40;4.90;;;22.90;69.10;;;;;;6207623;28;94575;-70
2023/01/28 14:07:29;;;;;;;5.85;5.07;;;22.90;70.10;;;;;;6215438;28;97556;-71
2023/01/28 14:10:42;;;;;;;6.47;5.65;;;22.90;69.30;;;;;;6206187;28;94291;-71
2023/01/28 14:14:02;;;;;;;6.15;5.10;;;22.90;69.30;;;;;;6203528;28;94069;-70
2023/01/28 14:17:13;;;;;;;5.93;5.07;;;22.90;69.30;;;;;;6215238;28;92956;-70
2023/01/28 14:20:19;;;;;;;5.68;5.10;;;22.90;69.30;;;;;;6227700;28;94395;-71
2023/01/28 14:23:25;;;;;;;5.55;4.78;;;22.90;69.30;;;;;;6217746;28;94500;-71
2023/01/28 14:26:41;;;;;;;5.30;4.80;;;22.90;69.30;;;;;;6205111;28;94488;-71
2023/01/28 14:29:53;;;;;;;5.40;4.90;;;22.90;69.30;;;;;;6205468;28;94010;-68
2023/01/28 14:32:55;;;;;;;4.95;4.45;;;22.90;69.60;;;;;;6216313;28;93992;-68
2023/01/28 14:35:57;;;;;;;7.72;4.88;;;22.90;69.60;;;;;;6226000;28;93690;-72
2023/01/28 14:39:02;;;;;;;6.20;4.80;;;22.90;70.30;;;;;;6227924;28;93843;-71
2023/01/28 14:42:04;;;;;;;5.65;4.93;;;22.90;70.30;;;;;;6224411;28;94875;-71
2023/01/28 14:45:24;;;;;;;8.95;5.03;;;22.90;70.50;;;;;;6223780;28;95337;-72
2023/01/28 14:48:29;;;;;;;6.32;4.85;;;22.90;71.00;;;;;;6227190;28;94117;-71
2023/01/28 14:51:53;;;;;;;5.60;4.88;;;23.00;71.10;;;;;;6214843;28;94231;-71
2023/01/28 14:55:08;;;;;;;6.20;4.85;;;23.00;71.10;;;;;;6221009;28;94085;-69
2023/01/28 14:58:16;;;;;;;6.25;4.93;;;23.00;71.00;;;;;;6224837;28;93324;-71
2023/01/28 15:01:24;;;;;;;7.15;4.65;;;23.00;70.80;;;;;;6224694;28;94073;-71
2023/01/28 15:04:29;;;;;;;5.38;4.82;;;23.00;70.80;;;;;;6214528;28;94096;-71
2023/01/28 15:07:31;;;;;;;6.85;5.15;;;23.00;70.80;;;;;;6210169;28;93429;-72
2023/01/28 15:10:38;;;;;;;9.68;4.70;;;23.10;70.30;;;;;;6222556;28;93999;-73
2023/01/28 15:13:43;;;;;;;8.55;4.97;;;23.00;68.40;;;;;;6226129;28;92972;-72
2023/01/28 15:16:49;;;;;;;9.10;4.70;;;23.00;69.20;;;;;;6225958;28;95090;-72
2023/01/28 15:19:51;;;;;;;8.55;4.70;;;23.00;69.50;;;;;;6213154;28;94070;-73
2023/01/28 15:22:54;;;;;;;8.85;4.85;;;23.00;69.60;;;;;;6209269;28;94074;-72
2023/01/28 15:25:57;;;;;;;7.95;4.13;;;23.00;69.60;;;;;;6204939;28;94112;-72
2023/01/28 15:29:00;;;;;;;9.00;4.72;;;23.00;69.60;;;;;;6218046;28;94188;-72
2023/01/28 15:32:03;;;;;;;6.55;4.40;;;23.00;69.60;;;;;;6217539;28;94384;-73
2023/01/28 15:35:12;;;;;;;5.95;4.80;;;23.00;69.60;;;;;;6206165;28;93116;-73
2023/01/28 15:38:16;;;;;;;5.28;4.70;;;23.00;69.50;;;;;;6205510;28;93384;-73
2023/01/28 15:41:23;;;;;;;7.82;4.13;;;23.00;69.40;;;;;;6207356;28;94675;-72
2023/01/28 15:44:30;;;;;;;5.15;4.13;;;23.00;69.40;;;;;;6228331;28;94171;-72
2023/01/28 15:47:34;;;;;;;6.10;4.30;;;23.00;69.40;;;;;;6227235;28;95161;-71
2023/01/28 15:50:37;;;;;;;7.78;4.43;;;23.00;70.30;;;;;;6227546;28;94158;-72
2023/01/28 15:53:44;;;;;;;7.40;4.22;;;23.00;69.30;;;;;;6223885;28;94069;-72
2023/01/28 15:56:48;;;;;;;6.65;4.65;;;23.00;69.30;;;;;;6217502;28;93946;-72
2023/01/28 15:59:51;;;;;;;5.97;4.60;;;23.00;69.30;;;;;;6204157;28;94016;-73
2023/01/28 16:02:55;;;;;;;6.88;4.30;;;23.00;69.30;;;;;;6216803;28;93309;-70
2023/01/28 16:06:02;;;;;;;5.53;4.40;;;23.00;69.30;;;;;;6224468;28;94090;-72
2023/01/28 16:09:07;;;;;;;4.90;4.20;;;23.00;69.20;;;;;;6211279;28;92547;-72
2023/01/28 16:12:13;;;;;;;5.70;4.68;;;23.00;69.10;;;;;;6211228;28;94079;-72
2023/01/28 16:15:18;;;;;;;5.70;4.28;;;23.00;69.10;;;;;;6231486;28;93856;-72
2023/01/28 16:18:30;;;;;;;6.22;4.40;;;23.00;69.10;;;;;;6222016;28;94553;-72
2023/01/28 16:21:36;;;;;;;5.13;4.28;;;23.00;69.10;;;;;;6215757;28;94052;-72
2023/01/28 16:24:51;;;;;;;5.38;4.45;;;23.00;69.00;;;;;;6207359;28;94097;-72
2023/01/28 16:27:55;;;;;;;4.63;3.80;;;23.00;68.90;;;;;;6223398;28;94001;-72
2023/01/28 16:30:58;;;;;;;4.47;4.05;;;23.10;69.00;;;;;;6205854;28;94103;-71
2023/01/28 16:34:00;;;;;;;6.43;3.80;;;23.00;68.90;;;;;;6218549;28;94018;-72
2023/01/28 16:37:09;;;;;;;5.32;4.57;;;23.10;68.90;;;;;;6223468;28;93364;-72
2023/01/28 16:40:14;;;;;;;4.90;4.10;;;23.10;68.90;;;;;;6227786;28;94451;-72
2023/01/28 16:43:18;;;;;;;6.00;4.25;;;23.00;69.00;;;;;;6234204;28;94045;-70
2023/01/28 16:46:20;;;;;;;8.18;4.72;;;23.10;69.20;;;;;;6221044;28;93900;-69
2023/01/28 16:49:23;;;;;;;556.38;200.85;;;23.10;69.80;;;;;;6216693;28;93972;-75
2023/01/28 16:52:25;;;;;;;337.50;303.30;;;23.10;72.40;;;;;;6241688;28;93540;-73
2023/01/28 16:55:28;;;;;;;126.93;86.38;;;23.10;72.30;;;;;;6212755;28;94143;-73
2023/01/28 16:58:31;;;;;;;100.15;67.82;;;23.10;71.80;;;;;;6216496;28;93122;-74
2023/01/28 17:01:34;;;;;;;83.97;55.33;;;23.20;71.60;;;;;;6229445;28;94165;-73
2023/01/28 17:04:36;;;;;;;71.13;45.45;;;23.20;71.10;;;;;;6225576;28;94351;-74
2023/01/28 17:07:39;;;;;;;63.50;40.60;;;23.30;70.20;;;;;;6225573;28;92676;-74
2023/01/28 17:10:41;;;;;;;61.05;36.83;;;23.30;70.00;;;;;;6208045;28;92357;-74
2023/01/28 17:13:45;;;;;;;55.83;34.63;;;23.30;69.80;;;;;;6228290;28;94392;-74
2023/01/28 17:16:47;;;;;;;50.30;32.47;;;23.30;69.70;;;;;;6215072;28;93327;-74
2023/01/28 17:19:49;;;;;;;47.50;29.90;;;23.30;69.80;;;;;;6225267;28;95057;-75
2023/01/28 17:22:52;;;;;;;54.88;32.20;;;23.30;69.70;;;;;;6218394;28;93688;-73
2023/01/28 17:25:54;;;;;;;41.28;26.08;;;23.30;69.90;;;;;;6227067;28;94308;-75
2023/01/28 17:28:59;;;;;;;41.95;26.58;;;23.30;69.90;;;;;;6229635;28;94119;-74
2023/01/28 17:32:02;;;;;;;37.08;24.17;;;23.30;69.80;;;;;;6229004;28;93750;-74
2023/01/28 17:35:07;;;;;;;40.80;22.88;;;23.30;69.80;;;;;;6210485;28;93232;-75
2023/01/28 17:38:10;;;;;;;37.45;22.83;;;23.30;69.70;;;;;;6221597;28;93405;-73
2023/01/28 17:41:13;;;;;;;35.60;22.40;;;23.30;69.60;;;;;;6228556;28;93366;-74
2023/01/28 17:44:17;;;;;;;31.48;20.60;;;23.30;69.50;;;;;;6235739;28;94086;-72
2023/01/28 17:47:21;;;;;;;32.95;20.00;;;23.30;69.50;;;;;;6217817;28;94199;-74
2023/01/28 17:50:23;;;;;;;32.70;18.88;;;23.30;69.40;;;;;;6225852;28;93102;-74
2023/01/28 17:53:26;;;;;;;27.33;18.33;;;23.30;69.30;;;;;;6228117;28;92027;-74
2023/01/28 17:56:30;;;;;;;25.98;17.75;;;23.30;69.30;;;;;;6215815;28;93361;-74
2023/01/28 17:59:36;;;;;;;27.70;17.60;;;23.30;69.30;;;;;;6219106;28;94180;-73
2023/01/28 18:02:38;;;;;;;27.15;16.27;;;23.30;69.20;;;;;;6217192;28;93391;-73
2023/01/28 18:05:41;;;;;;;26.00;15.77;;;23.30;69.10;;;;;;6204555;28;94308;-73
2023/01/28 18:08:45;;;;;;;23.45;14.77;;;23.30;69.10;;;;;;6217623;28;93236;-74
2023/01/28 18:11:47;;;;;;;23.83;15.25;;;23.30;69.10;;;;;;6208593;28;92586;-73
2023/01/28 18:14:51;;;;;;;25.20;14.25;;;23.30;69.10;;;;;;6214495;28;94023;-73
2023/01/28 18:17:54;;;;;;;19.77;13.38;;;23.30;69.00;;;;;;6226962;28;93347;-73
2023/01/28 18:21:00;;;;;;;22.35;13.95;;;23.30;69.00;;;;;;6227019;28;95066;-74
2023/01/28 18:24:03;;;;;;;22.05;12.90;;;23.30;68.90;;;;;;6217749;28;94127;-73
2023/01/28 18:27:05;;;;;;;22.90;13.75;;;23.30;68.90;;;;;;6218991;28;93259;-73
2023/01/28 18:30:12;;;;;;;19.98;12.25;;;23.30;68.90;;;;;;6223732;28;94189;-71
2023/01/28 18:33:15;;;;;;;17.58;11.50;;;23.30;68.90;;;;;;6219073;28;94081;-74
2023/01/28 18:36:18;;;;;;;17.95;11.45;;;23.30;68.80;;;;;;6212096;28;93060;-74
2023/01/28 18:39:21;;;;;;;17.50;11.35;;;23.30;68.80;;;;;;6205487;28;94107;-74
2023/01/28 18:42:24;;;;;;;14.85;10.77;;;23.30;68.80;;;;;;6217985;28;92494;-73
2023/01/28 18:45:28;;;;;;;15.95;10.35;;;23.30;68.80;;;;;;6221807;28;93058;-74
2023/01/28 18:48:31;;;;;;;16.38;9.95;;;23.30;68.70;;;;;;6224556;28;94069;-74
2023/01/28 18:51:34;;;;;;;14.98;9.93;;;23.30;68.70;;;;;;6215106;28;94541;-74
2023/01/28 18:54:37;;;;;;;17.38;10.07;;;23.30;68.70;;;;;;6214044;28;93865;-74
2023/01/28 18:57:40;;;;;;;15.38;9.77;;;23.30;68.60;;;;;;6225087;28;93374;-74
2023/01/28 19:00:45;;;;;;;15.52;9.93;;;23.30;68.70;;;;;;6215320;28;94247;-73
2023/01/28 19:03:47;;;;;;;14.60;9.50;;;23.30;68.60;;;;;;6215758;28;93037;-74
2023/01/28 19:06:50;;;;;;;14.80;8.88;;;23.30;68.60;;;;;;6225610;28;93026;-73
2023/01/28 19:09:53;;;;;;;14.40;9.30;;;23.30;68.60;;;;;;6215569;28;94648;-74
2023/01/28 19:12:56;;;;;;;13.73;8.70;;;23.30;68.60;;;;;;6216238;28;92461;-73
2023/01/28 19:16:03;;;;;;;12.05;7.90;;;23.30;68.60;;;;;;6216147;28;93108;-72
2023/01/28 19:19:07;;;;;;;13.30;8.07;;;23.30;68.60;;;;;;6203918;28;94597;-74
2023/01/28 19:22:09;;;;;;;12.90;8.32;;;23.30;68.60;;;;;;6216380;28;93064;-74
2023/01/28 19:25:12;;;;;;;10.68;7.75;;;23.30;68.50;;;;;;6225025;28;94088;-73
2023/01/28 19:28:16;;;;;;;9.88;7.50;;;23.30;69.40;;;;;;6215082;28;92064;-73
2023/01/28 19:31:21;;;;;;;11.07;7.57;;;23.30;68.60;;;;;;6226108;28;93121;-73
2023/01/28 19:34:24;;;;;;;10.35;7.28;;;23.30;68.60;;;;;;6213253;28;93145;-73
2023/01/28 19:37:26;;;;;;;9.43;6.93;;;23.30;68.60;;;;;;6216695;28;93116;-73
2023/01/28 19:40:30;;;;;;;11.30;7.10;;;23.30;68.60;;;;;;6219037;28;93080;-73
2023/01/28 19:43:32;;;;;;;11.32;7.60;;;23.30;68.60;;;;;;6225562;28;93371;-74
2023/01/28 19:46:36;;;;;;;9.40;7.82;;;23.30;68.60;;;;;;6205610;28;94101;-73
2023/01/28 19:49:40;;;;;;;10.77;6.72;;;23.30;68.60;;;;;;6203628;28;93091;-74
2023/01/28 19:52:43;;;;;;;9.77;6.78;;;23.30;68.60;;;;;;6214693;28;94496;-73
2023/01/28 19:55:46;;;;;;;9.73;6.45;;;23.30;68.60;;;;;;6224297;28;94188;-72
2023/01/28 19:58:49;;;;;;;8.70;6.50;;;23.30;68.60;;;;;;6212303;28;93243;-74
2023/01/28 20:01:53;;;;;;;8.30;6.43;;;23.30;68.60;;;;;;6218010;28;94331;-73
2023/01/28 20:04:57;;;;;;;8.10;6.28;;;23.30;68.60;;;;;;6225630;28;93785;-74
2023/01/28 20:08:00;;;;;;;8.80;6.45;;;23.30;68.60;;;;;;6204022;28;93033;-73
2023/01/28 20:11:04;;;;;;;9.02;6.30;;;23.30;68.50;;;;;;6226309;28;93038;-74
2023/01/28 20:14:07;;;;;;;7.97;6.07;;;23.30;68.50;;;;;;6223076;28;92324;-73
2023/01/28 20:17:11;;;;;;;7.38;5.90;;;23.30;68.40;;;;;;6220242;28;94090;-73
2023/01/28 20:20:14;;;;;;;7.88;6.15;;;23.30;68.50;;;;;;6226186;28;93141;-74
2023/01/28 20:23:17;;;;;;;6.57;5.88;;;23.30;68.40;;;;;;6213552;28;93924;-73
2023/01/28 20:26:26;;;;;;;7.78;5.80;;;23.30;68.40;;;;;;6223748;28;93071;-74
2023/01/28 20:29:29;;;;;;;7.32;5.78;;;23.30;68.50;;;;;;6213358;28;94252;-73
2023/01/28 20:32:33;;;;;;;7.63;6.13;;;23.30;68.50;;;;;;6216062;28;94475;-73
2023/01/28 20:35:35;;;;;;;6.88;5.85;;;23.30;68.50;;;;;;6207368;28;94365;-73
2023/01/28 20:38:40;;;;;;;7.20;5.30;;;23.30;68.60;;;;;;6232221;28;93248;-73
2023/01/28 20:41:43;;;;;;;7.22;5.40;;;23.30;68.50;;;;;;6228128;28;95840;-72
2023/01/28 20:44:46;;;;;;;6.90;5.47;;;23.30;68.50;;;;;;6231338;28;93620;-74
2023/01/28 20:47:50;;;;;;;7.25;5.78;;;23.30;68.50;;;;;;6230431;28;94636;-74
2023/01/28 20:50:53;;;;;;;7.55;5.63;;;23.30;68.50;;;;;;6230512;28;93223;-74
2023/01/28 20:53:56;;;;;;;6.70;5.22;;;23.30;68.50;;;;;;6214192;28;93981;-73
2023/01/28 20:56:58;;;;;;;8.35;5.60;;;23.30;68.50;;;;;;6226552;28;92776;-75
2023/01/28 21:00:01;;;;;;;6.43;5.18;;;23.30;68.40;;;;;;6230200;28;94332;-75
2023/01/28 21:03:05;;;;;;;13.35;5.90;;;23.30;68.70;;;;;;6220827;28;94144;-73
2023/01/28 21:06:07;;;;;;;7.85;5.38;;;23.30;69.60;;;;;;6227717;28;94386;-74
2023/01/28 21:09:10;;;;;;;6.95;5.50;;;23.40;69.80;;;;;;6229634;28;94086;-73
2023/01/28 21:12:13;;;;;;;7.07;5.75;;;23.40;70.10;;;;;;6189584;28;95267;-73
2023/01/28 21:15:15;;;;;;;8.25;5.63;;;23.40;70.10;;;;;;6231960;28;95144;-72
2023/01/28 21:18:19;;;;;;;6.45;5.47;;;23.40;70.30;;;;;;6228779;28;94200;-71
2023/01/28 21:21:24;;;;;;;7.82;5.72;;;23.50;69.60;;;;;;6199313;28;92783;-74
2023/01/28 21:24:26;;;;;;;8.73;6.32;;;23.50;69.10;;;;;;6221036;28;95318;-75
2023/01/28 21:27:32;;;;;;;9.95;6.15;;;23.50;68.90;;;;;;6229394;28;94192;-76
2023/01/28 21:30:36;;;;;;;9.25;6.68;;;23.50;68.80;;;;;;6221238;28;93289;-75
2023/01/28 21:33:40;;;;;;;8.15;6.53;;;23.50;68.60;;;;;;6226226;28;93447;-76
2023/01/28 21:36:42;;;;;;;8.88;6.50;;;23.50;68.30;;;;;;6228524;28;93594;-73
2023/01/28 21:39:45;;;;;;;9.00;6.82;;;23.40;68.30;;;;;;6222575;28;95976;-76
2023/01/28 21:42:47;;;;;;;8.80;6.60;;;23.40;68.30;;;;;;6224028;28;94043;-76
2023/01/28 21:45:55;;;;;;;10.48;7.22;;;23.40;67.40;;;;;;6217889;28;93695;-74
2023/01/28 21:49:01;;;;;;;8.68;6.75;;;23.40;66.30;;;;;;6227337;28;94028;-74
2023/01/28 21:52:03;;;;;;;11.23;7.18;;;23.40;66.10;;;;;;6210502;28;94599;-74
2023/01/28 21:55:06;;;;;;;11.93;7.07;;;23.30;65.60;;;;;;6223493;28;95118;-74
2023/01/28 22:01:24;;;;;;;8.18;7.38;;;23.30;64.10;;;;;;6211942;28;93641;-74
2023/01/28 22:04:31;;;;;;;8.85;7.22;;;23.20;63.30;;;;;;6226810;28;94629;-74
2023/01/28 22:07:33;;;;;;;8.25;7.45;;;23.10;62.70;;;;;;6220287;28;94452;-74
2023/01/28 22:10:36;;;;;;;9.50;7.15;;;23.10;61.80;;;;;;6225742;28;94124;-74
2023/01/28 22:13:38;;;;;;;10.15;7.18;;;23.10;60.80;;;;;;6226974;28;94178;-74
2023/01/28 22:16:41;;;;;;;9.75;7.07;;;23.00;60.40;;;;;;6216808;28;95400;-74
2023/01/28 22:19:46;;;;;;;9.55;7.35;;;23.00;60.30;;;;;;6224445;28;94149;-74
2023/01/28 22:22:48;;;;;;;10.63;7.82;;;23.00;61.10;;;;;;6226422;28;94333;-75
2023/01/28 22:25:51;;;;;;;8.07;7.28;;;23.00;60.00;;;;;;6212587;28;95372;-75
2023/01/28 22:28:53;;;;;;;7.85;7.13;;;22.90;59.80;;;;;;6210712;28;94165;-73
2023/01/28 22:31:55;;;;;;;8.52;7.43;;;22.90;59.20;;;;;;6221788;28;94116;-75
2023/01/28 22:35:00;;;;;;;8.13;7.32;;;22.80;59.10;;;;;;6212575;28;94202;-76
2023/01/28 22:38:02;;;;;;;9.55;7.63;;;22.70;59.50;;;;;;6218115;28;93978;-75
2023/01/28 22:41:06;;;;;;;11.32;7.22;;;22.80;59.50;;;;;;6215518;28;94431;-75
2023/01/28 22:44:08;;;;;;;8.32;6.97;;;22.70;59.40;;;;;;6220936;28;94154;-77
2023/01/28 22:47:10;;;;;;;9.43;7.38;;;22.70;59.70;;;;;;6222062;28;93330;-79
2023/01/28 22:50:14;;;;;;;7.50;6.70;;;22.70;60.00;;;;;;6225798;28;94112;-74
2023/01/28 22:53:16;;;;;;;8.80;6.50;;;22.70;61.00;;;;;;6210878;28;94331;-72
2023/01/28 22:56:20;;;;;;;10.05;7.03;;;22.70;62.20;;;;;;6205324;28;95606;-77
2023/01/28 22:59:22;;;;;;;9.35;6.57;;;22.70;63.70;;;;;;6205689;28;94687;-78
2023/01/28 23:02:24;;;;;;;7.68;6.57;;;22.70;63.70;;;;;;6204057;28;94183;-79
2023/01/28 23:05:28;;;;;;;7.97;7.10;;;22.70;64.10;;;;;;6208254;28;94344;-79
2023/01/28 23:08:30;;;;;;;7.63;6.47;;;22.70;64.10;;;;;;6213612;28;94046;-75
2023/01/28 23:11:32;;;;;;;9.15;6.72;;;22.70;64.50;;;;;;6217487;28;94145;-78
2023/01/28 23:24:38;;;;;;;7.20;6.50;;;22.60;65.40;;;;;;6218030;28;92920;-77
2023/01/28 23:27:40;;;;;;;8.25;6.68;;;22.60;65.90;;;;;;6214051;28;95181;-76
2023/01/28 23:30:42;;;;;;;9.05;7.45;;;22.60;66.10;;;;;;6226355;28;94222;-77
2023/01/28 23:33:44;;;;;;;9.65;7.22;;;22.60;66.30;;;;;;6216520;28;94265;-77
2023/01/28 23:36:49;;;;;;;10.05;7.38;;;22.60;66.40;;;;;;6216565;28;94009;-76
